createdAt,value
2023-05-21T00:02:09.057Z,21.50
2023-05-21T00:04:36.152Z,21.50
2023-05-21T00:07:03.153Z,25.00
2023-05-21T00:09:30.083Z,24.75
2023-05-21T00:11:57.018Z,20.75
2023-05-21T00:14:24.132Z,26.00
2023-05-21T00:16:51.094Z,20.50
2023-05-21T00:19:19.546Z,21.00
2023-05-21T00:21:46.537Z,22.25
2023-05-21T00:24:13.408Z,27.25
2023-05-21T00:26:40.510Z,18.50
2023-05-21T00:29:07.383Z,26.75
2023-05-21T00:31:36.011Z,21.75
2023-05-21T00:34:03.480Z,23.25
2023-05-21T00:36:31.951Z,22.00
2023-05-21T00:38:58.855Z,26.75
2023-05-21T00:41:25.985Z,26.00
2023-05-21T00:43:52.935Z,22.00
2023-05-21T00:46:22.851Z,21.75
2023-05-21T00:48:52.069Z,25.00
2023-05-21T00:51:19.536Z,25.50
2023-05-21T00:53:51.320Z,25.75
2023-05-21T00:56:19.608Z,25.50
2023-05-21T00:58:46.624Z,24.25
2023-05-21T01:01:14.142Z,20.25
2023-05-21T01:03:43.243Z,24.50
2023-05-21T01:06:11.563Z,28.50
2023-05-21T01:08:40.045Z,17.50
2023-05-21T01:11:10.980Z,28.00
2023-05-21T01:13:41.983Z,22.75
2023-05-21T01:16:10.336Z,23.50
2023-05-21T01:18:38.424Z,22.75
2023-05-21T01:21:06.280Z,18.25
2023-05-21T01:23:35.110Z,25.75
2023-05-21T01:26:02.221Z,22.25
2023-05-21T01:28:29.224Z,23.00
2023-05-21T01:31:04.844Z,21.25
2023-05-21T01:33:41.364Z,23.25
2023-05-21T01:36:17.082Z,24.00
2023-05-21T01:38:56.755Z,23.50
2023-05-21T01:41:29.540Z,21.50
2023-05-21T01:43:57.372Z,14.50
2023-05-21T01:46:30.607Z,21.50
2023-05-21T01:48:58.122Z,21.00
2023-05-21T01:51:27.160Z,20.75
2023-05-21T01:53:55.455Z,23.75
2023-05-21T01:56:22.373Z,15.50
2023-05-21T01:58:49.310Z,20.75
2023-05-21T02:05:47.832Z,25.50
2023-05-21T02:08:15.582Z,18.75
2023-05-21T02:10:44.141Z,24.75
2023-05-21T02:13:11.407Z,21.50
2023-05-21T02:15:38.442Z,26.00
2023-05-21T02:18:05.877Z,23.25
2023-05-21T02:20:33.465Z,22.00
2023-05-21T02:23:00.534Z,19.00
2023-05-21T02:25:27.408Z,21.50
2023-05-21T02:27:55.943Z,24.50
2023-05-21T02:30:22.851Z,21.75
2023-05-21T02:32:49.718Z,26.75
2023-05-21T02:35:16.775Z,26.50
2023-05-21T02:37:44.364Z,19.25
2023-05-21T02:40:12.760Z,19.00
2023-05-21T02:42:40.679Z,21.75
2023-05-21T02:45:12.950Z,20.75
2023-05-21T02:47:42.084Z,20.75
2023-05-21T02:50:09.951Z,18.00
2023-05-21T02:52:44.210Z,26.75
2023-05-21T02:55:11.196Z,24.25
2023-05-21T02:57:38.219Z,23.50
2023-05-21T03:00:07.054Z,19.25
2023-05-21T03:02:36.145Z,17.75
2023-05-21T03:05:03.382Z,18.00
2023-05-21T03:07:50.926Z,19.00
2023-05-21T03:10:25.799Z,17.25
2023-05-21T03:12:53.090Z,23.50
2023-05-21T03:15:21.237Z,23.75
2023-05-21T03:17:49.628Z,16.50
2023-05-21T03:20:16.800Z,26.50
2023-05-21T03:22:44.260Z,27.50
2023-05-21T03:25:11.365Z,23.00
2023-05-21T03:27:39.782Z,17.00
2023-05-21T03:30:53.901Z,27.00
2023-05-21T03:33:54.807Z,22.50
2023-05-21T03:36:25.089Z,23.00
2023-05-21T03:38:52.420Z,16.50
2023-05-21T03:41:20.549Z,27.25
2023-05-21T03:43:51.846Z,24.00
2023-05-21T03:46:21.344Z,20.25
2023-05-21T03:49:16.727Z,21.00
2023-05-21T03:51:43.878Z,16.25
2023-05-21T03:54:14.676Z,20.75
2023-05-21T03:56:41.720Z,20.00
2023-05-21T03:59:09.272Z,24.75
2023-05-21T04:01:36.708Z,28.75
2023-05-21T04:04:05.432Z,19.25
2023-05-21T04:06:34.799Z,22.00
2023-05-21T04:09:01.740Z,23.00
2023-05-21T04:11:29.914Z,28.00
2023-05-21T04:13:57.133Z,23.50
2023-05-21T04:16:24.932Z,23.00
2023-05-21T04:18:53.495Z,22.50
2023-05-21T04:21:21.027Z,21.75
2023-05-21T04:23:49.464Z,21.25
2023-05-21T04:26:30.259Z,24.50
2023-05-21T04:28:58.775Z,22.25
2023-05-21T04:31:25.959Z,19.25
2023-05-21T04:34:14.148Z,22.25
2023-05-21T04:36:41.947Z,30.25
2023-05-21T04:39:11.139Z,21.25
2023-05-21T04:41:38.655Z,26.00
2023-05-21T04:44:07.739Z,20.25
2023-05-21T04:46:35.641Z,23.00
2023-05-21T04:49:02.810Z,15.25
2023-05-21T04:51:30.129Z,22.50
2023-05-21T04:53:57.534Z,23.00
2023-05-21T04:56:26.057Z,22.25
2023-05-21T04:58:53.599Z,23.50
2023-05-21T05:01:21.476Z,26.75
2023-05-21T05:03:49.655Z,26.00
2023-05-21T05:06:17.113Z,24.75
2023-05-21T05:08:45.339Z,20.50
2023-05-21T05:11:12.360Z,22.75
2023-05-21T05:13:41.315Z,22.00
2023-05-21T05:16:08.950Z,24.25
2023-05-21T05:18:36.825Z,22.00
2023-05-21T05:21:04.185Z,25.00
2023-05-21T05:23:31.912Z,18.25
2023-05-21T05:25:58.923Z,22.50
2023-05-21T05:28:26.003Z,21.75
2023-05-21T05:30:54.511Z,27.00
2023-05-21T05:33:24.666Z,23.00
2023-05-21T05:35:51.594Z,25.75
2023-05-21T05:38:18.545Z,14.75
2023-05-21T05:40:45.668Z,23.75
2023-05-21T05:43:12.841Z,23.00
2023-05-21T05:45:40.179Z,24.75
2023-05-21T05:48:14.012Z,24.00
2023-05-21T05:50:42.209Z,23.00
2023-05-21T05:53:10.489Z,20.75
2023-05-21T05:55:37.929Z,22.00
2023-05-21T05:58:05.682Z,20.25
2023-05-21T06:00:38.854Z,21.50
2023-05-21T06:03:05.970Z,18.75
2023-05-21T06:05:35.370Z,24.75
2023-05-21T06:08:02.552Z,21.50
2023-05-21T06:10:30.600Z,20.50
2023-05-21T06:12:57.606Z,16.00
2023-05-21T06:15:24.550Z,22.50
2023-05-21T06:17:52.440Z,29.00
2023-05-21T06:20:19.759Z,22.00
2023-05-21T06:22:48.205Z,24.75
2023-05-21T06:25:16.130Z,29.50
2023-05-21T06:27:43.512Z,24.75
2023-05-21T06:30:18.112Z,22.75
2023-05-21T06:32:45.453Z,22.50
2023-05-21T06:35:12.572Z,32.50
2023-05-21T06:37:39.393Z,19.25
2023-05-21T06:40:10.130Z,22.60
2023-05-21T06:42:37.753Z,18.00
2023-05-21T06:45:36.658Z,24.80
2023-05-21T06:48:18.963Z,23.20
2023-05-21T06:50:48.063Z,18.40
2023-05-21T06:53:15.007Z,21.20
2023-05-21T06:55:43.727Z,16.20
2023-05-21T06:58:21.313Z,20.20
2023-05-21T07:00:49.035Z,18.60
2023-05-21T07:03:16.259Z,19.20
2023-05-21T07:05:43.351Z,15.40
2023-05-21T07:08:12.002Z,14.00
2023-05-21T07:10:39.532Z,16.40
2023-05-21T07:13:08.280Z,18.40
2023-05-21T07:15:38.009Z,18.80
2023-05-21T07:18:05.148Z,16.80
2023-05-21T07:20:32.098Z,9.60
2023-05-21T07:23:02.562Z,16.80
2023-05-21T07:25:30.579Z,15.80
2023-05-21T07:27:57.783Z,15.60
2023-05-21T07:30:29.749Z,18.60
2023-05-21T07:32:57.801Z,15.20
2023-05-21T07:35:25.097Z,15.80
2023-05-21T07:37:52.101Z,13.60
2023-05-21T07:40:19.274Z,14.80
2023-05-21T07:42:47.492Z,14.00
2023-05-21T07:45:17.549Z,13.40
2023-05-21T07:47:46.583Z,15.20
2023-05-21T07:50:14.815Z,14.60
2023-05-21T07:52:42.465Z,17.00
2023-05-21T07:55:09.953Z,13.00
2023-05-21T07:57:39.422Z,15.60
2023-05-21T08:00:11.836Z,14.80
2023-05-21T08:02:54.200Z,12.00
2023-05-21T08:05:21.467Z,12.80
2023-05-21T08:07:49.377Z,15.20
2023-05-21T08:10:19.151Z,14.80
2023-05-21T08:12:49.296Z,13.00
2023-05-21T08:15:16.487Z,12.00
2023-05-21T08:17:46.591Z,13.60
2023-05-21T08:20:15.505Z,11.80
2023-05-21T08:22:44.432Z,14.20
2023-05-21T08:25:12.174Z,14.00
2023-05-21T08:27:39.246Z,15.00
2023-05-21T08:30:08.481Z,17.20
2023-05-21T08:32:38.626Z,12.00
2023-05-21T08:35:07.287Z,12.00
2023-05-21T08:38:27.041Z,11.60
2023-05-21T08:41:00.923Z,12.60
2023-05-21T08:43:30.154Z,13.20
2023-05-21T08:46:03.480Z,13.80
2023-05-21T08:48:35.030Z,12.60
2023-05-21T08:51:02.499Z,12.60
2023-05-21T08:53:34.774Z,14.80
2023-05-21T08:56:06.609Z,11.00
2023-05-21T08:58:49.582Z,11.60
2023-05-21T09:01:23.412Z,13.80
2023-05-21T09:04:04.875Z,14.00
2023-05-21T09:06:36.416Z,12.20
2023-05-21T09:09:15.505Z,17.00
2023-05-21T09:11:47.924Z,15.40
2023-05-21T09:14:15.159Z,10.40
2023-05-21T09:16:59.076Z,7.40
2023-05-21T09:19:26.924Z,6.80
2023-05-21T09:21:54.299Z,12.00
2023-05-21T09:24:31.499Z,10.80
2023-05-21T09:26:59.268Z,12.40
2023-05-21T09:29:27.076Z,14.60
2023-05-21T09:31:54.792Z,14.40
2023-05-21T09:34:25.229Z,19.80
2023-05-21T09:36:56.623Z,13.20
2023-05-21T09:39:30.997Z,12.00
2023-05-21T09:42:03.018Z,13.80
2023-05-21T09:44:30.297Z,11.40
2023-05-21T09:46:58.149Z,16.20
2023-05-21T09:49:26.755Z,15.40
2023-05-21T09:51:56.088Z,12.40
2023-05-21T09:54:23.338Z,11.60
2023-05-21T09:56:53.657Z,11.40
2023-05-21T09:59:22.280Z,11.20
2023-05-21T10:01:51.831Z,12.60
2023-05-21T10:04:21.680Z,9.00
2023-05-21T10:06:50.774Z,14.40
2023-05-21T10:09:20.566Z,12.20
2023-05-21T10:11:54.375Z,12.20
2023-05-21T10:14:27.586Z,13.60
2023-05-21T10:16:55.778Z,12.20
2023-05-21T10:19:24.992Z,12.20
2023-05-21T10:21:54.038Z,10.40
2023-05-21T10:24:23.367Z,9.80
2023-05-21T10:26:51.639Z,12.00
2023-05-21T10:29:23.028Z,7.00
2023-05-21T10:31:53.682Z,13.60
2023-05-21T10:34:23.589Z,13.00
2023-05-21T10:36:54.625Z,11.60
2023-05-21T10:39:25.327Z,12.40
2023-05-21T10:42:18.646Z,10.60
2023-05-21T10:45:11.920Z,11.40
2023-05-21T10:48:05.389Z,10.00
2023-05-21T10:51:07.180Z,11.60
2023-05-21T10:53:54.675Z,11.00
2023-05-21T10:56:28.558Z,11.00
2023-05-21T10:59:14.841Z,12.20
2023-05-21T11:01:43.964Z,8.20
2023-05-21T11:04:12.012Z,12.20
2023-05-21T11:06:40.668Z,11.00
2023-05-21T11:09:15.158Z,10.80
2023-05-21T11:11:44.921Z,10.80
2023-05-21T11:14:30.755Z,9.40
2023-05-21T11:16:59.611Z,8.80
2023-05-21T11:19:36.166Z,10.60
2023-05-21T11:22:21.356Z,10.60
2023-05-21T11:24:51.993Z,10.40
2023-05-21T11:27:33.708Z,9.00
2023-05-21T11:30:05.240Z,7.60
2023-05-21T11:32:37.862Z,9.80
2023-05-21T11:35:06.236Z,10.60
2023-05-21T11:37:35.529Z,12.60
2023-05-21T11:40:26.957Z,10.80
2023-05-21T11:42:55.938Z,10.20
2023-05-21T11:45:27.910Z,11.60
2023-05-21T11:47:57.187Z,11.80
2023-05-21T11:50:25.768Z,11.40
2023-05-21T11:52:52.757Z,10.20
2023-05-21T11:55:24.788Z,12.00
2023-05-21T11:57:54.188Z,11.60
2023-05-21T12:00:21.356Z,11.00
2023-05-21T12:02:52.354Z,10.00
2023-05-21T12:05:20.994Z,9.00
2023-05-21T12:07:49.529Z,10.00
2023-05-21T12:10:20.404Z,9.00
2023-05-21T12:12:54.944Z,11.60
2023-05-21T12:15:24.590Z,11.20
2023-05-21T12:17:53.222Z,11.20
2023-05-21T12:20:22.465Z,9.20
2023-05-21T12:22:50.316Z,12.80
2023-05-21T12:25:19.181Z,9.40
2023-05-21T12:27:48.771Z,12.00
2023-05-21T12:33:12.809Z,11.40
2023-05-21T12:35:41.178Z,11.20
2023-05-21T12:38:08.779Z,10.40
2023-05-21T12:40:37.979Z,10.60
2023-05-21T12:43:06.499Z,8.80
2023-05-21T12:45:34.361Z,8.40
2023-05-21T12:48:03.368Z,10.80
2023-05-21T12:50:30.536Z,11.00
2023-05-21T12:52:59.064Z,8.20
2023-05-21T12:55:26.006Z,11.60
2023-05-21T12:58:02.742Z,10.80
2023-05-21T13:00:31.924Z,8.60
2023-05-21T13:03:00.367Z,8.80
2023-05-21T13:05:27.542Z,9.40
2023-05-21T13:07:54.845Z,8.40
2023-05-21T13:10:23.198Z,9.20
2023-05-21T13:12:51.271Z,12.40
2023-05-21T13:15:19.119Z,10.40
2023-05-21T13:17:49.157Z,10.40
2023-05-21T13:20:20.049Z,8.00
2023-05-21T13:22:49.224Z,10.40
2023-05-21T13:25:18.964Z,11.80
2023-05-21T13:27:49.300Z,9.20
2023-05-21T13:33:29.703Z,12.60
2023-05-21T13:35:56.733Z,10.80
2023-05-21T13:38:23.633Z,9.80
2023-05-21T13:40:51.537Z,10.40
2023-05-21T13:43:19.864Z,7.60
2023-05-21T13:45:49.603Z,11.80
2023-05-21T13:48:18.378Z,9.40
2023-05-21T13:50:45.815Z,11.00
2023-05-21T13:53:12.992Z,12.00
2023-05-21T13:55:40.775Z,11.60
2023-05-21T13:58:10.930Z,10.20
2023-05-21T14:00:40.931Z,4.40
2023-05-21T14:03:08.369Z,10.20
2023-05-21T14:05:35.385Z,10.20
2023-05-21T14:08:02.394Z,10.00
2023-05-21T14:10:29.859Z,11.60
2023-05-21T14:13:01.693Z,12.60
2023-05-21T14:15:41.260Z,8.60
2023-05-21T14:18:11.552Z,12.00
2023-05-21T14:20:39.472Z,10.60
2023-05-21T14:23:06.688Z,7.00
2023-05-21T14:25:35.719Z,8.20
2023-05-21T14:28:03.232Z,10.20
2023-05-21T14:30:53.345Z,8.40
2023-05-21T14:33:21.802Z,7.60
2023-05-21T14:35:49.183Z,9.20
2023-05-21T14:38:16.886Z,8.80
2023-05-21T14:40:44.388Z,11.60
2023-05-21T14:43:11.698Z,9.20
2023-05-21T14:45:38.916Z,8.60
2023-05-21T14:48:07.684Z,10.00
2023-05-21T14:50:36.457Z,10.80
2023-05-21T14:53:07.726Z,7.60
2023-05-21T14:55:37.326Z,10.80
2023-05-21T14:58:05.910Z,10.00
2023-05-21T15:00:41.505Z,9.00
2023-05-21T15:04:07.291Z,8.80
2023-05-21T15:06:40.341Z,9.00
2023-05-21T15:09:12.271Z,10.80
2023-05-21T15:11:40.692Z,8.40
2023-05-21T15:14:46.837Z,8.40
2023-05-21T15:17:53.200Z,6.80
2023-05-21T15:20:22.488Z,10.20
2023-05-21T15:22:49.604Z,9.40
2023-05-21T15:25:19.333Z,7.00
2023-05-21T15:27:56.142Z,8.00
2023-05-21T15:33:09.114Z,9.80
2023-05-21T15:35:38.126Z,8.40
2023-05-21T15:38:05.536Z,9.60
2023-05-21T15:40:32.735Z,12.80
2023-05-21T15:42:59.991Z,12.20
2023-05-21T15:45:29.674Z,14.80
2023-05-21T15:47:58.549Z,12.20
2023-05-21T15:50:25.621Z,12.40
2023-05-21T15:52:53.945Z,8.80
2023-05-21T15:55:21.192Z,11.60
2023-05-21T15:57:50.622Z,14.00
2023-05-21T16:00:18.175Z,13.40
2023-05-21T16:02:45.126Z,13.60
2023-05-21T16:05:12.219Z,12.60
2023-05-21T16:07:40.178Z,9.80
2023-05-21T16:10:10.592Z,10.80
2023-05-21T16:12:38.148Z,11.80
2023-05-21T16:15:06.797Z,11.80
2023-05-21T16:17:33.880Z,13.80
2023-05-21T16:20:01.858Z,12.40
2023-05-21T16:22:31.291Z,10.80
2023-05-21T16:24:59.842Z,14.80
2023-05-21T16:27:28.226Z,11.80
2023-05-21T16:29:55.169Z,16.60
2023-05-21T16:32:22.724Z,13.00
2023-05-21T16:34:50.071Z,16.60
2023-05-21T16:37:17.234Z,15.80
2023-05-21T16:39:44.223Z,12.60
2023-05-21T16:42:20.880Z,8.40
2023-05-21T16:45:00.285Z,12.80
2023-05-21T16:47:28.821Z,14.80
2023-05-21T16:50:02.802Z,12.00
2023-05-21T16:52:30.658Z,13.00
2023-05-21T16:54:57.829Z,14.00
2023-05-21T16:57:24.996Z,10.80
2023-05-21T16:59:56.650Z,14.60
2023-05-21T17:02:24.159Z,13.20
2023-05-21T17:04:51.553Z,14.20
2023-05-21T17:07:30.460Z,17.60
2023-05-21T17:09:57.456Z,10.80
2023-05-21T17:12:24.534Z,14.80
2023-05-21T17:14:56.372Z,17.60
2023-05-21T17:17:26.810Z,16.40
2023-05-21T17:20:02.033Z,13.80
2023-05-21T17:22:36.183Z,16.40
2023-05-21T17:25:15.369Z,14.40
2023-05-21T17:27:42.299Z,15.20
2023-05-21T17:30:16.869Z,15.40
2023-05-21T17:32:47.018Z,14.40
2023-05-21T17:35:15.772Z,14.80
2023-05-21T17:37:42.625Z,13.60
2023-05-21T17:40:11.393Z,15.80
2023-05-21T17:42:39.694Z,14.80
2023-05-21T17:45:10.157Z,15.80
2023-05-21T17:47:47.706Z,14.60
2023-05-21T17:50:20.895Z,12.20
2023-05-21T17:52:52.776Z,14.20
2023-05-21T17:55:23.345Z,12.80
2023-05-21T17:57:58.550Z,15.60
2023-05-21T18:00:45.146Z,17.40
2023-05-21T18:07:12.293Z,17.80
2023-05-21T18:09:39.430Z,14.00
2023-05-21T18:12:07.686Z,14.00
2023-05-21T18:14:37.749Z,12.80
2023-05-21T18:17:05.536Z,15.80
2023-05-21T18:19:34.253Z,15.20
2023-05-21T18:22:05.522Z,13.60
2023-05-21T18:24:37.859Z,14.00
2023-05-21T18:27:05.566Z,15.00
2023-05-21T18:29:34.823Z,13.20
2023-05-21T18:32:02.460Z,13.40
2023-05-21T18:34:29.506Z,15.80
2023-05-21T18:36:58.434Z,14.00
2023-05-21T18:39:25.344Z,12.20
2023-05-21T18:42:01.562Z,9.40
2023-05-21T18:44:32.724Z,13.40
2023-05-21T18:46:59.876Z,13.40
2023-05-21T18:49:26.828Z,16.20
2023-05-21T18:51:53.857Z,14.20
2023-05-21T18:54:22.936Z,48.50
2023-05-21T18:56:50.010Z,26.60
2023-05-21T18:59:16.993Z,13.80
2023-05-21T19:01:44.335Z,16.40
2023-05-21T19:04:14.455Z,13.00
2023-05-21T19:06:41.457Z,17.80
2023-05-21T19:09:08.745Z,15.40
2023-05-21T19:11:38.757Z,15.60
2023-05-21T19:14:06.112Z,16.00
2023-05-21T19:16:33.237Z,14.60
2023-05-21T19:19:00.524Z,13.40
2023-05-21T19:21:28.283Z,18.40
2023-05-21T19:24:21.065Z,16.00
2023-05-21T19:26:49.690Z,14.20
2023-05-21T19:29:17.562Z,17.00
2023-05-21T19:31:45.107Z,20.20
2023-05-21T19:34:12.524Z,21.00
2023-05-21T19:36:52.034Z,16.80
2023-05-21T19:39:30.659Z,13.40
2023-05-21T19:41:59.277Z,20.40
2023-05-21T19:44:26.680Z,19.60
2023-05-21T19:47:08.464Z,16.60
2023-05-21T19:49:39.130Z,19.00
2023-05-21T19:52:27.161Z,15.40
2023-05-21T19:55:00.892Z,18.20
2023-05-21T20:01:17.576Z,17.80
2023-05-21T20:03:45.147Z,17.40
2023-05-21T20:06:13.596Z,18.60
2023-05-21T20:08:40.637Z,19.50
2023-05-21T20:11:10.760Z,19.60
2023-05-21T20:14:04.653Z,20.50
2023-05-21T20:16:35.203Z,17.00
2023-05-21T20:19:03.329Z,15.80
2023-05-21T20:21:31.856Z,14.80
2023-05-21T20:23:59.120Z,18.50
2023-05-21T20:26:53.607Z,17.60
2023-05-21T20:29:23.664Z,17.20
2023-05-21T20:31:50.865Z,15.75
2023-05-21T20:35:08.280Z,22.50
2023-05-21T20:37:35.507Z,17.25
2023-05-21T20:40:02.704Z,17.75
2023-05-21T20:42:31.335Z,16.00
2023-05-21T20:44:59.954Z,15.50
2023-05-21T20:47:27.694Z,22.00
2023-05-21T20:49:55.611Z,21.75
2023-05-21T20:52:23.694Z,21.50
2023-05-21T20:54:51.062Z,23.00
2023-05-21T20:57:17.958Z,14.25
2023-05-21T20:59:44.791Z,20.50
2023-05-21T21:02:13.270Z,20.00
2023-05-21T21:04:40.250Z,16.75
2023-05-21T21:07:07.316Z,20.75
2023-05-21T21:09:34.413Z,19.50
2023-05-21T21:12:06.156Z,16.75
2023-05-21T21:14:38.454Z,18.75
2023-05-21T21:17:05.530Z,20.25
2023-05-21T21:19:33.782Z,20.25
2023-05-21T21:22:01.169Z,19.50
2023-05-21T21:24:28.034Z,21.50
2023-05-21T21:26:54.979Z,20.00
2023-05-21T21:29:21.854Z,21.25
2023-05-21T21:31:48.969Z,17.00
2023-05-21T21:34:16.044Z,20.25
2023-05-21T21:36:44.350Z,17.25
2023-05-21T21:39:11.507Z,20.00
2023-05-21T21:41:38.458Z,22.00
2023-05-21T21:44:05.407Z,18.75
2023-05-21T21:46:32.678Z,11.75
2023-05-21T21:48:59.693Z,19.00
2023-05-21T21:51:26.912Z,16.75
2023-05-21T21:53:55.181Z,17.00
2023-05-21T21:56:22.123Z,19.00
2023-05-21T21:58:49.118Z,14.25
2023-05-21T22:01:16.133Z,24.25
2023-05-21T22:03:43.350Z,19.75
2023-05-21T22:06:10.261Z,17.00
2023-05-21T22:08:37.181Z,17.50
2023-05-21T22:11:05.932Z,15.00
2023-05-21T22:13:32.785Z,23.25
2023-05-21T22:16:00.081Z,17.25
2023-05-21T22:18:39.362Z,21.75
2023-05-21T22:21:08.336Z,21.50
2023-05-21T22:23:35.668Z,20.50
2023-05-21T22:26:02.650Z,17.75
2023-05-21T22:28:31.155Z,17.00
2023-05-21T22:31:19.497Z,19.50
2023-05-21T22:33:46.545Z,21.75
2023-05-21T22:36:13.518Z,17.00
2023-05-21T22:38:40.562Z,15.75
2023-05-21T22:41:07.503Z,20.00
2023-05-21T22:43:37.295Z,20.75
2023-05-21T22:46:04.267Z,15.75
2023-05-21T22:48:31.214Z,19.50
2023-05-21T22:50:58.310Z,23.75
2023-05-21T22:53:25.810Z,15.00
2023-05-21T22:55:52.859Z,19.00
2023-05-21T22:58:19.733Z,23.00
2023-05-21T23:00:48.253Z,16.75
2023-05-21T23:03:15.358Z,18.50
2023-05-21T23:05:42.418Z,17.25
2023-05-21T23:08:09.494Z,25.75
2023-05-21T23:10:36.439Z,20.25
2023-05-21T23:13:03.637Z,19.25
2023-05-21T23:15:30.480Z,18.75
2023-05-21T23:17:58.696Z,25.75
2023-05-21T23:20:25.920Z,23.75
2023-05-21T23:22:52.804Z,20.00
2023-05-21T23:25:19.684Z,20.00
2023-05-21T23:27:46.774Z,22.00
2023-05-21T23:30:14.031Z,22.75
2023-05-21T23:32:41.183Z,19.00
2023-05-21T23:35:10.230Z,18.50
2023-05-21T23:37:37.103Z,19.00
2023-05-21T23:40:05.176Z,21.25
2023-05-21T23:42:32.085Z,23.75
2023-05-21T23:44:59.587Z,26.25
2023-05-21T23:47:26.544Z,24.00
2023-05-21T23:49:53.495Z,21.50
2023-05-21T23:52:22.048Z,20.00
2023-05-21T23:54:49.180Z,9.25
2023-05-21T23:57:16.136Z,27.25
2023-05-21T23:59:43.644Z,14.75
